Time;durP1;ratioP1;P1;durP2;ratioP2;P2;SDS_P1;SDS_P2;PMS_P1;PMS_P2;Temp;Humidity;BMP_temperature;BMP_pressure;BME280_temperature;BME280_humidity;BME280_pressure;Samples;Min_cycle;Max_cycle;Signal;HPM_P1;HPM_P2
2023/04/28 00:00:43;;;;;;;;;2.33;2.33;;;;;20.55;59.35;101072.84;5054983;28;45468;-67
2023/04/28 00:03:09;;;;;;;;;3.00;2.67;;;;;20.55;59.55;101074.69;5052786;28;45785;-67
2023/04/28 00:05:34;;;;;;;;;3.67;3.67;;;;;20.57;59.67;101072.72;5054830;28;45459;-69
2023/04/28 00:08:00;;;;;;;;;3.00;2.67;;;;;20.55;59.72;101067.47;5060722;28;45402;-68
2023/04/28 00:10:25;;;;;;;;;3.67;3.67;;;;;20.54;59.45;101063.09;5057938;28;45409;-69
2023/04/28 00:12:50;;;;;;;;;6.00;4.33;;;;;20.54;59.51;101075.69;5039824;28;45306;-69
2023/04/28 00:15:16;;;;;;;;;3.00;3.00;;;;;20.51;59.63;101071.41;5040284;28;45323;-68
2023/04/28 00:17:42;;;;;;;;;4.33;4.33;;;;;20.51;59.87;101075.94;5040455;28;45280;-68
2023/04/28 00:20:08;;;;;;;;;3.00;3.00;;;;;20.51;59.72;101076.78;5041339;28;45237;-68
2023/04/28 00:22:33;;;;;;;;;3.00;3.00;;;;;20.51;59.79;101075.94;5043745;28;46275;-68
2023/04/28 00:24:59;;;;;;;;;5.67;3.67;;;;;20.51;59.80;101078.63;5040115;28;45387;-68
2023/04/28 00:27:24;;;;;;;;;5.00;4.00;;;;;20.52;59.98;101077.63;5040424;28;45318;-68
2023/04/28 00:29:49;;;;;;;;;3.00;3.00;;;;;20.52;59.86;101081.16;5040354;28;45363;-68
2023/04/28 00:32:15;;;;;;;;;2.67;2.33;;;;;20.51;60.08;101073.25;5040144;28;46123;-69
2023/04/28 00:34:40;;;;;;;;;4.33;3.00;;;;;20.46;60.39;101068.25;5039433;28;45235;-67
2023/04/28 00:37:05;;;;;;;;;3.00;3.00;;;;;20.49;59.91;101084.13;5054923;28;45194;-67
2023/04/28 00:39:31;;;;;;;;;2.67;2.67;;;;;20.50;60.17;101080.44;5039218;28;45306;-68
2023/04/28 00:41:56;;;;;;;;;2.67;2.67;;;;;20.49;60.18;101077.88;5053579;28;45977;-68
2023/04/28 00:44:22;;;;;;;;;3.33;3.33;;;;;20.49;60.18;101061.75;5044166;28;45498;-67
2023/04/28 00:46:48;;;;;;;;;2.67;2.67;;;;;20.48;60.26;101060.06;5060280;28;45381;-67
2023/04/28 00:49:14;;;;;;;;;5.00;3.67;;;;;20.47;60.39;101056.53;5059795;28;45347;-67
2023/04/28 00:51:40;;;;;;;;;3.67;3.67;;;;;20.46;60.08;101057.50;5050630;28;46274;-68
2023/04/28 00:54:06;;;;;;;;;4.67;3.33;;;;;20.44;60.24;101054.09;5039803;28;45439;-67
2023/04/28 00:56:32;;;;;;;;;3.00;3.00;;;;;20.46;60.27;101056.66;5041310;28;46343;-67
2023/04/28 00:58:57;;;;;;;;;1.67;1.67;;;;;20.45;60.40;101061.16;5059586;28;45290;-67
2023/04/28 01:01:23;;;;;;;;;3.00;2.00;;;;;20.44;60.34;101062.16;5051398;28;45300;-67
2023/04/28 01:03:48;;;;;;;;;2.00;1.67;;;;;20.45;60.35;101060.34;5049879;28;45316;-67
2023/04/28 01:06:15;;;;;;;;;2.00;2.00;;;;;20.44;60.22;101072.91;5042252;28;45288;-67
2023/04/28 01:08:42;;;;;;;;;3.33;3.33;;;;;20.42;60.24;101068.66;5039655;28;45485;-67
2023/04/28 01:11:12;;;;;;;;;2.00;2.00;;;;;20.29;60.04;101049.16;5047418;28;45291;-67
2023/04/28 01:13:38;;;;;;;;;2.67;2.67;;;;;20.40;60.21;101062.53;5051202;28;45343;-67
2023/04/28 01:16:04;;;;;;;;;3.67;2.67;;;;;20.39;60.38;101058.13;5041298;28;45310;-68
2023/04/28 01:18:30;;;;;;;;;2.33;2.33;;;;;20.38;60.31;101057.31;5049297;28;45374;-67
2023/04/28 01:20:56;;;;;;;;;4.33;4.00;;;;;20.41;60.42;101066.94;5050400;28;46278;-67
2023/04/28 01:23:21;;;;;;;;;4.67;2.67;;;;;20.41;60.37;101070.47;5039468;28;45208;-67
2023/04/28 01:25:46;;;;;;;;;3.00;3.00;;;;;20.40;60.44;101067.91;5042204;28;45337;-67
2023/04/28 01:28:12;;;;;;;;;2.00;2.00;;;;;20.39;60.52;101061.69;5043112;28;45572;-67
2023/04/28 01:30:37;;;;;;;;;2.67;2.67;;;;;20.40;60.36;101070.59;5042835;28;46057;-68
2023/04/28 01:33:03;;;;;;;;;4.33;1.67;;;;;20.38;60.40;101065.38;5053060;28;45239;-68
2023/04/28 01:35:28;;;;;;;;;2.33;2.33;;;;;20.39;60.32;101066.19;5049310;28;45390;-68
2023/04/28 01:37:54;;;;;;;;;3.00;2.67;;;;;20.39;60.58;101063.50;5052711;28;45263;-68
2023/04/28 01:40:19;;;;;;;;;4.00;2.33;;;;;20.38;60.60;101060.00;5044935;28;45928;-68
2023/04/28 01:42:45;;;;;;;;;3.67;2.67;;;;;20.38;60.49;101068.06;5045679;28;45477;-68
2023/04/28 01:45:10;;;;;;;;;2.00;2.00;;;;;20.39;60.66;101063.50;5050139;28;45236;-68
2023/04/28 01:47:36;;;;;;;;;2.67;2.67;;;;;20.37;60.61;101055.59;5052908;28;45506;-68
2023/04/28 01:50:01;;;;;;;;;2.33;2.33;;;;;20.38;60.56;101053.75;5048532;28;45992;-68
2023/04/28 01:52:26;;;;;;;;;1.00;1.00;;;;;20.37;60.58;101052.91;5056774;28;45251;-68
2023/04/28 01:54:53;;;;;;;;;2.33;2.33;;;;;20.37;60.36;101046.69;5041055;28;45464;-68
2023/04/28 01:57:18;;;;;;;;;2.00;2.00;;;;;20.37;60.53;101057.41;5042502;28;45367;-68
2023/04/28 01:59:44;;;;;;;;;1.33;1.33;;;;;20.36;60.28;101053.88;5052765;28;46303;-68
2023/04/28 02:02:09;;;;;;;;;1.33;1.33;;;;;20.33;60.57;101045.22;5041876;28;45358;-68
2023/04/28 02:04:37;;;;;;;;;3.00;3.00;;;;;20.36;60.59;101050.34;5046289;28;45232;-68
2023/04/28 02:07:02;;;;;;;;;2.00;2.00;;;;;20.35;60.49;101054.88;5042239;28;45417;-68
2023/04/28 02:09:27;;;;;;;;;3.00;3.00;;;;;20.33;60.68;101054.13;5041876;28;45419;-68
2023/04/28 02:11:53;;;;;;;;;2.67;2.67;;;;;20.34;60.63;101055.00;5041471;28;45305;-68
2023/04/28 02:14:18;;;;;;;;;2.00;2.00;;;;;20.33;60.54;101056.81;5042259;28;45247;-68
2023/04/28 02:16:43;;;;;;;;;2.33;1.67;;;;;20.30;60.62;101051.72;5042279;28;45286;-68
2023/04/28 02:19:08;;;;;;;;;4.00;2.67;;;;;20.33;60.73;101051.44;5055636;28;46604;-68
2023/04/28 02:21:34;;;;;;;;;2.67;2.67;;;;;20.32;60.66;101055.09;5055626;28;45234;-68
2023/04/28 02:23:59;;;;;;;;;4.33;2.67;;;;;20.31;60.55;101057.94;5047364;28;45232;-68
2023/04/28 02:26:24;;;;;;;;;2.00;2.00;;;;;20.30;60.69;101061.59;5050049;28;45340;-68
2023/04/28 02:28:50;;;;;;;;;2.33;2.33;;;;;20.31;60.76;101068.69;5047270;28;46131;-68
2023/04/28 02:31:15;;;;;;;;;1.67;1.67;;;;;20.30;60.58;101065.16;5042034;28;45342;-68
2023/04/28 02:33:41;;;;;;;;;3.33;3.33;;;;;20.30;60.74;101077.72;5042172;28;45269;-67
2023/04/28 02:36:07;;;;;;;;;2.33;2.00;;;;;20.29;60.52;101070.66;5047230;28;45351;-68
2023/04/28 02:38:33;;;;;;;;;2.67;2.67;;;;;20.29;60.79;101063.44;5046235;28;45413;-68
2023/04/28 02:41:03;;;;;;;;;1.67;1.67;;;;;20.29;60.74;101060.75;5042317;28;45367;-68
2023/04/28 02:43:30;;;;;;;;;2.00;2.00;;;;;20.29;60.57;101062.59;5043713;28;45402;-68
2023/04/28 02:45:56;;;;;;;;;3.00;3.00;;;;;20.27;60.61;101060.88;5052308;28;45247;-68
2023/04/28 02:48:22;;;;;;;;;2.00;2.00;;;;;20.27;60.71;101060.88;5040996;28;46386;-68
2023/04/28 02:50:47;;;;;;;;;1.67;1.67;;;;;20.27;60.91;101066.25;5049711;28;45436;-68
2023/04/28 02:53:12;;;;;;;;;2.00;2.00;;;;;20.26;60.65;101052.91;5045602;28;45331;-68
2023/04/28 02:55:38;;;;;;;;;1.67;1.67;;;;;20.27;60.83;101066.25;5047269;28;45522;-68
2023/04/28 02:58:03;;;;;;;;;3.00;2.67;;;;;20.27;60.50;101066.25;5058545;28;45943;-67
2023/04/28 03:00:29;;;;;;;;;1.00;1.00;;;;;20.27;60.91;101066.25;5059282;28;45410;-68
2023/04/28 03:02:54;;;;;;;;;1.67;1.67;;;;;20.27;60.77;101070.78;5060950;28;45393;-68
2023/04/28 03:05:20;;;;;;;;;1.67;1.67;;;;;20.27;60.92;101073.47;5060847;28;45318;-68
2023/04/28 03:07:45;;;;;;;;;1.67;1.67;;;;;20.26;60.97;101056.50;5045541;28;45501;-68
2023/04/28 03:10:11;;;;;;;;;1.67;1.67;;;;;20.19;60.77;101044.50;5045374;28;45245;-68
2023/04/28 03:12:36;;;;;;;;;1.67;1.67;;;;;20.26;60.70;101059.16;5045372;28;45477;-68
2023/04/28 03:15:02;;;;;;;;;1.00;1.00;;;;;20.25;60.75;101065.47;5041068;28;45288;-68
2023/04/28 03:17:27;;;;;;;;;1.33;1.33;;;;;20.24;60.73;101052.19;5054116;28;46097;-68
2023/04/28 03:19:53;;;;;;;;;0.50;0.50;;;;;20.25;60.71;101061.97;5039359;28;45307;-68
2023/04/28 03:22:18;;;;;;;;;2.67;1.67;;;;;20.25;60.63;101053.91;5040844;28;45820;-68
2023/04/28 03:24:43;;;;;;;;;2.67;0.67;;;;;20.19;60.95;101047.19;5040916;28;45212;-68
2023/04/28 03:27:09;;;;;;;;;2.33;2.33;;;;;20.23;60.74;101059.41;5053702;28;45220;-68
2023/04/28 03:29:34;;;;;;;;;0.67;0.33;;;;;20.23;60.85;101062.09;5048306;28;45279;-68
2023/04/28 03:32:00;;;;;;;;;0.67;0.67;;;;;20.23;60.70;101063.91;5059821;28;45334;-68
2023/04/28 03:34:25;;;;;;;;;2.33;1.67;;;;;20.23;60.87;101063.91;5040380;28;45302;-69
2023/04/28 03:36:51;;;;;;;;;2.33;1.67;;;;;20.22;60.67;101059.53;5040570;28;46028;-68
2023/04/28 03:39:16;;;;;;;;;0.67;0.67;;;;;20.22;60.73;101051.47;5040274;28;45363;-68
2023/04/28 03:41:41;;;;;;;;;2.33;2.33;;;;;20.21;60.68;101056.00;5052951;28;45274;-68
2023/04/28 03:44:07;;;;;;;;;1.67;1.67;;;;;20.21;60.85;101053.31;5042509;28;45328;-68
2023/04/28 03:46:33;;;;;;;;;2.33;2.33;;;;;20.21;60.81;101050.63;5046665;28;45773;-67
2023/04/28 03:49:01;;;;;;;;;1.33;1.33;;;;;20.17;60.60;101043.78;5059384;28;45337;-67
2023/04/28 03:51:26;;;;;;;;;1.00;1.00;;;;;20.19;60.76;101052.56;5044667;28;45453;-67
2023/04/28 03:53:52;;;;;;;;;1.33;0.00;;;;;20.20;60.63;101056.97;5040499;28;45247;-67
2023/04/28 03:56:17;;;;;;;;;1.67;1.67;;;;;20.20;60.69;101059.66;5047577;28;46263;-67
2023/04/28 03:58:43;;;;;;;;;1.67;1.67;;;;;20.19;60.65;101049.88;5055542;28;45231;-67
2023/04/28 04:01:08;;;;;;;;;2.00;2.00;;;;;20.15;60.65;101048.47;5056767;28;45247;-67
2023/04/28 04:03:33;;;;;;;;;0.67;0.67;;;;;20.19;60.59;101052.56;5048385;28;45473;-67
2023/04/28 04:05:59;;;;;;;;;0.67;0.67;;;;;20.19;60.73;101049.88;5059769;28;46046;-67
2023/04/28 04:08:25;;;;;;;;;1.33;1.33;;;;;20.20;60.68;101056.97;5051718;28;45569;-67
2023/04/28 04:10:51;;;;;;;;;3.00;2.00;;;;;20.20;60.53;101050.75;5039464;28;45291;-67
2023/04/28 04:13:16;;;;;;;;;1.00;1.00;;;;;20.20;60.38;101043.53;5045991;28;45367;-67
2023/04/28 04:15:42;;;;;;;;;2.33;1.33;;;;;20.20;60.38;101051.59;5039796;28;45297;-67
2023/04/28 04:18:07;;;;;;;;;0.33;0.33;;;;;20.23;60.31;101053.16;5039854;28;45304;-67
2023/04/28 04:20:32;;;;;;;;;0.67;0.67;;;;;20.28;60.46;101059.06;5038514;28;45313;-68
2023/04/28 04:22:57;;;;;;;;;1.67;0.67;;;;;20.30;60.22;101062.47;5039716;28;45398;-67
2023/04/28 04:25:23;;;;;;;;;0.67;0.67;;;;;20.34;60.41;101060.38;5039813;28;46313;-67
2023/04/28 04:27:48;;;;;;;;;0.33;0.33;;;;;20.39;60.28;101072.44;5039500;28;45286;-67
2023/04/28 04:30:14;;;;;;;;;0.33;0.33;;;;;20.44;60.08;101067.53;5039834;28;45938;-67
2023/04/28 04:32:39;;;;;;;;;0.00;0.00;;;;;20.48;60.12;101073.50;5039446;28;45296;-67
2023/04/28 04:35:04;;;;;;;;;0.00;0.00;;;;;20.54;59.97;101073.00;5039152;28;46064;-67
2023/04/28 04:37:30;;;;;;;;;0.67;0.67;;;;;20.60;60.11;101077.84;5040279;28;46244;-67
2023/04/28 04:39:55;;;;;;;;;0.00;0.00;;;;;20.65;59.90;101067.53;5044464;28;45557;-68
2023/04/28 04:42:21;;;;;;;;;1.00;1.00;;;;;20.71;59.85;101073.25;5039939;28;45492;-68
2023/04/28 04:44:46;;;;;;;;;0.33;0.33;;;;;20.76;59.72;101071.03;5046104;28;46256;-68
2023/04/28 04:47:12;;;;;;;;;1.00;0.67;;;;;20.82;59.86;101069.66;5046274;28;45240;-66
2023/04/28 04:49:37;;;;;;;;;1.00;1.00;;;;;20.86;59.93;101076.47;5049923;28;45368;-68
2023/04/28 04:52:03;;;;;;;;;0.67;0.67;;;;;20.89;59.93;101073.53;5042867;28;45216;-69
2023/04/28 04:54:29;;;;;;;;;1.00;1.00;;;;;20.94;59.77;101081.19;5041850;28;45408;-67
2023/04/28 04:56:54;;;;;;;;;0.00;0.00;;;;;20.97;59.56;101079.09;5044935;28;45274;-69
2023/04/28 04:59:20;;;;;;;;;0.00;0.00;;;;;21.01;59.78;101082.34;5055384;28;45340;-69
2023/04/28 05:01:45;;;;;;;;;0.00;0.00;;;;;21.06;59.62;101091.75;5059520;28;45256;-69
2023/04/28 05:04:10;;;;;;;;;0.67;0.00;;;;;21.11;59.36;101092.22;5045979;28;46838;-68
2023/04/28 05:06:36;;;;;;;;;1.67;0.67;;;;;21.15;59.42;101082.06;5044840;28;45244;-68
2023/04/28 05:09:01;;;;;;;;;0.00;0.00;;;;;21.19;59.68;101088.88;5059165;28;45338;-68
2023/04/28 05:11:26;;;;;;;;;0.00;0.00;;;;;21.23;59.50;101085.81;5047020;28;45231;-68
2023/04/28 05:13:52;;;;;;;;;0.00;0.00;;;;;21.26;59.30;101088.22;5051786;28;45299;-67
2023/04/28 05:16:17;;;;;;;;;0.00;0.00;;;;;21.30;59.48;101086.94;5045515;28;45521;-68
2023/04/28 05:18:43;;;;;;;;;0.67;0.67;;;;;21.36;58.93;101090.09;5047125;28;45255;-68
2023/04/28 05:21:10;;;;;;;;;0.00;0.00;;;;;21.40;59.17;101103.13;5038158;28;45415;-67
2023/04/28 05:23:36;;;;;;;;;0.00;0.00;;;;;21.42;59.27;101081.50;5047530;28;45390;-68
2023/04/28 05:26:02;;;;;;;;;0.00;0.00;;;;;21.45;58.95;101083.91;5037905;28;45468;-68
2023/04/28 05:28:29;;;;;;;;;0.00;0.00;;;;;21.49;59.35;101093.44;5039014;28;45248;-68
2023/04/28 05:30:54;;;;;;;;;0.00;0.00;;;;;21.51;59.05;101084.22;5041218;28;45389;-68
2023/04/28 05:33:20;;;;;;;;;0.00;0.00;;;;;21.55;59.06;101090.19;5046721;28;46937;-68
2023/04/28 05:35:45;;;;;;;;;0.00;0.00;;;;;21.57;58.88;101086.38;5054858;28;45156;-68
2023/04/28 05:38:11;;;;;;;;;0.67;0.67;;;;;21.59;59.09;101094.31;5040099;28;45315;-68
2023/04/28 05:40:36;;;;;;;;;0.00;0.00;;;;;21.61;59.13;101092.34;5037617;28;45502;-68
2023/04/28 05:43:01;;;;;;;;;0.67;0.67;;;;;21.63;59.17;101095.72;5038545;28;45354;-68
2023/04/28 05:45:27;;;;;;;;;0.00;0.00;;;;;21.65;58.83;101094.63;5052638;28;45341;-68
2023/04/28 05:47:52;;;;;;;;;0.00;0.00;;;;;21.66;58.85;101093.63;5050446;28;45432;-68
2023/04/28 05:50:17;;;;;;;;;2.00;0.00;;;;;21.64;59.14;101083.97;5041776;28;45263;-68
2023/04/28 05:52:43;;;;;;;;;0.00;0.00;;;;;21.68;59.20;101097.03;5038351;28;45403;-68
2023/04/28 05:55:08;;;;;;;;;0.00;0.00;;;;;21.69;58.92;101109.50;5037788;28;45469;-68
2023/04/28 05:57:34;;;;;;;;;0.00;0.00;;;;;21.70;58.98;101092.38;5041027;28;45420;-68
2023/04/28 06:00:00;;;;;;;;;0.00;0.00;;;;;21.71;58.89;101093.22;5050067;28;45497;-68
2023/04/28 06:02:25;;;;;;;;;0.00;0.00;;;;;21.70;59.30;101105.81;5039556;28;46231;-68
2023/04/28 06:04:50;;;;;;;;;0.00;0.00;;;;;21.72;59.21;101105.69;5038211;28;45448;-68
2023/04/28 06:07:16;;;;;;;;;0.00;0.00;;;;;21.71;58.95;101107.53;5040614;28;45226;-68
2023/04/28 06:09:41;;;;;;;;;0.00;0.00;;;;;21.72;58.93;101109.25;5040569;28;45403;-68
2023/04/28 06:12:07;;;;;;;;;1.00;0.00;;;;;21.71;58.84;101104.84;5047458;28;46231;-68
2023/04/28 06:14:32;;;;;;;;;0.00;0.00;;;;;21.71;59.14;101114.75;5060799;28;45370;-67
2023/04/28 06:16:57;;;;;;;;;0.00;0.00;;;;;21.71;58.58;101115.63;5046698;28;45256;-68
2023/04/28 06:19:23;;;;;;;;;0.00;0.00;;;;;21.71;58.60;101106.69;5043454;28;45420;-68
2023/04/28 06:21:50;;;;;;;;;0.00;0.00;;;;;21.68;58.85;101104.25;5042582;28;46065;-67
2023/04/28 06:24:15;;;;;;;;;0.00;0.00;;;;;21.69;58.43;101112.19;5054472;28;45403;-67
2023/04/28 06:26:41;;;;;;;;;3.67;0.00;;;;;21.69;58.94;101109.50;5041772;28;45333;-68
2023/04/28 06:29:06;;;;;;;;;3.33;1.00;;;;;21.70;58.72;101108.53;5041423;28;45374;-67
2023/04/28 06:31:32;;;;;;;;;2.67;1.00;;;;;21.68;59.23;101105.13;5053561;28;47203;-68
2023/04/28 06:33:57;;;;;;;;;2.00;2.00;;;;;21.69;59.91;101097.91;5041402;28;45288;-68
2023/04/28 06:36:22;;;;;;;;;3.00;1.67;;;;;21.72;59.64;101106.56;5047605;28;45364;-68
2023/04/28 06:38:48;;;;;;;;;0.67;0.67;;;;;21.72;59.13;101103.88;5059363;28;45480;-67
2023/04/28 06:41:13;;;;;;;;;0.33;0.33;;;;;21.68;58.73;101102.44;5057264;28;46788;-68
2023/04/28 06:43:38;;;;;;;;;0.33;0.33;;;;;21.72;58.88;101114.63;5061240;28;45428;-67
2023/04/28 06:46:04;;;;;;;;;1.67;1.67;;;;;21.73;58.96;101116.31;5055800;28;45785;-68
2023/04/28 06:48:30;;;;;;;;;0.67;0.67;;;;;21.71;59.35;101118.31;5060714;28;45532;-67
2023/04/28 06:50:55;;;;;;;;;1.00;1.00;;;;;21.70;59.33;101121.13;5048523;28;45266;-69
2023/04/28 06:53:20;;;;;;;;;1.33;1.33;;;;;21.71;60.63;101128.22;5043342;28;45354;-68
2023/04/28 06:55:46;;;;;;;;;0.67;0.67;;;;;21.66;60.07;101120.53;5048628;28;45274;-68
2023/04/28 06:58:11;;;;;;;;;2.33;0.33;;;;;21.70;59.46;101123.81;5041609;28;45231;-69
2023/04/28 07:00:37;;;;;;;;;0.00;0.00;;;;;21.54;59.47;101105.47;5043936;28;46145;-69
2023/04/28 07:03:03;;;;;;;;;0.00;0.00;;;;;21.69;59.57;101132.91;5041410;28;45445;-68
2023/04/28 07:05:28;;;;;;;;;1.33;0.67;;;;;21.66;60.48;101123.22;5045982;28;45324;-68
2023/04/28 07:07:53;;;;;;;;;1.00;1.00;;;;;21.68;61.50;101131.19;5054814;28;45171;-67
2023/04/28 07:10:19;;;;;;;;;0.00;0.00;;;;;21.68;59.87;101139.25;5045805;28;45337;-67
2023/04/28 07:12:44;;;;;;;;;1.33;0.67;;;;;21.66;60.01;101133.19;5047371;28;45281;-67
2023/04/28 07:15:10;;;;;;;;;0.33;0.33;;;;;21.65;60.56;101140.41;5041029;28;45252;-67
2023/04/28 07:17:36;;;;;;;;;0.67;0.67;;;;;21.64;60.68;101144.06;5046548;28;45314;-67
2023/04/28 07:20:03;;;;;;;;;0.33;0.33;;;;;21.63;59.86;101136.97;5042137;28;45534;-67
2023/04/28 07:22:28;;;;;;;;;1.00;0.00;;;;;21.63;59.92;101147.72;5044287;28;45464;-66
2023/04/28 07:24:53;;;;;;;;;0.67;0.67;;;;;21.62;59.68;101140.66;5050390;28;45429;-67
2023/04/28 07:27:19;;;;;;;;;1.00;1.00;;;;;21.61;59.92;101138.94;5044346;28;45536;-67
2023/04/28 07:29:44;;;;;;;;;0.00;0.00;;;;;21.61;59.76;101149.72;5041063;28;46001;-67
2023/04/28 07:32:09;;;;;;;;;0.00;0.00;;;;;21.61;59.84;101146.16;5055825;28;45345;-67
2023/04/28 07:34:36;;;;;;;;;0.00;0.00;;;;;21.60;59.64;101150.69;5052182;28;45301;-67
2023/04/28 07:37:02;;;;;;;;;0.00;0.00;;;;;21.57;59.75;101148.28;5041037;28;45418;-67
2023/04/28 07:39:29;;;;;;;;;0.00;0.00;;;;;21.57;59.78;101150.09;5048752;28;45289;-67
2023/04/28 07:41:56;;;;;;;;;0.33;0.33;;;;;21.56;59.97;101149.25;5059407;28;45238;-67
2023/04/28 07:44:22;;;;;;;;;0.33;0.33;;;;;21.54;59.92;101147.69;5045230;28;45346;-67
2023/04/28 07:46:47;;;;;;;;;0.33;0.33;;;;;21.54;60.09;101147.69;5046831;28;45363;-68
2023/04/28 07:49:13;;;;;;;;;0.67;0.67;;;;;21.53;60.12;101152.22;5053308;28;46275;-67
2023/04/28 07:51:38;;;;;;;;;0.00;0.00;;;;;21.52;60.15;101157.75;5046131;28;45366;-67
2023/04/28 07:54:03;;;;;;;;;0.00;0.00;;;;;21.51;59.91;101156.03;5040946;28;45198;-67
2023/04/28 07:56:29;;;;;;;;;0.00;0.00;;;;;21.50;59.94;101151.66;5046503;28;45553;-67
2023/04/28 07:58:54;;;;;;;;;0.00;0.00;;;;;21.49;60.16;101168.78;5045597;28;46844;-66
2023/04/28 08:01:20;;;;;;;;;0.00;0.00;;;;;21.48;59.78;101167.06;5049730;28;45268;-68
2023/04/28 08:03:45;;;;;;;;;0.00;0.00;;;;;21.45;59.98;101162.81;5057882;28;45310;-67
2023/04/28 08:06:12;;;;;;;;;0.00;0.00;;;;;21.44;60.32;101163.78;5048608;28;45449;-67
2023/04/28 08:08:37;;;;;;;;;0.00;0.00;;;;;21.44;60.39;101168.31;5040454;28;45298;-67
2023/04/28 08:11:02;;;;;;;;;0.00;0.00;;;;;21.42;59.81;101164.91;5040575;28;45215;-67
2023/04/28 08:13:28;;;;;;;;;0.00;0.00;;;;;21.41;60.00;101160.50;5058090;28;45202;-67
2023/04/28 08:15:59;;;;;;;;;0.00;0.00;;;;;21.40;60.35;101153.44;5049034;28;45387;-67
2023/04/28 08:18:25;;;;;;;;;0.00;0.00;;;;;21.38;60.19;101168.84;5053722;28;46568;-67
2023/04/28 08:20:50;;;;;;;;;0.00;0.00;;;;;21.37;60.40;101177.94;5041826;28;45358;-67
2023/04/28 08:23:15;;;;;;;;;0.00;0.00;;;;;21.36;60.01;101170.84;5047192;28;45486;-67
2023/04/28 08:25:41;;;;;;;;;0.00;0.00;;;;;21.35;60.15;101178.03;5044740;28;46162;-67
2023/04/28 08:28:07;;;;;;;;;1.00;0.00;;;;;21.34;60.30;101170.94;5041886;28;46867;-67
2023/04/28 08:30:33;;;;;;;;;0.67;0.67;;;;;21.33;60.35;101171.09;5040234;28;45303;-67
2023/04/28 08:32:59;;;;;;;;;0.33;0.33;;;;;21.33;60.16;101176.47;5041206;28;45268;-67
2023/04/28 08:35:25;;;;;;;;;0.00;0.00;;;;;21.33;60.31;101174.66;5039518;28;45165;-67
2023/04/28 08:37:51;;;;;;;;;0.00;0.00;;;;;21.28;60.41;101160.72;5041813;28;45535;-67
2023/04/28 08:40:17;;;;;;;;;0.67;0.00;;;;;21.30;60.02;101167.66;5047617;28;45500;-67
2023/04/28 08:42:44;;;;;;;;;0.67;0.67;;;;;21.28;60.31;101160.72;5046654;28;45366;-67
2023/04/28 08:45:13;;;;;;;;;1.00;1.00;;;;;21.31;60.31;101165.84;5059955;28;45302;-67
2023/04/28 08:47:44;;;;;;;;;0.00;0.00;;;;;21.29;60.14;101168.69;5046570;28;46297;-67
2023/04/28 08:50:11;;;;;;;;;0.00;0.00;;;;;21.29;60.19;101176.75;5051382;28;45410;-67
2023/04/28 08:52:38;;;;;;;;;0.00;0.00;;;;;21.29;60.52;101176.75;5042420;28;45199;-67
2023/04/28 08:55:12;;;;;;;;;0.00;0.00;;;;;21.26;60.47;101179.69;5058320;28;45258;-67
2023/04/28 08:57:47;;;;;;;;;0.00;0.00;;;;;21.27;60.33;101177.84;5046211;28;45338;-67
2023/04/28 09:00:13;;;;;;;;;0.00;0.00;;;;;21.27;60.53;101188.59;5050096;28;45506;-67
2023/04/28 09:02:41;;;;;;;;;0.00;0.00;;;;;21.26;60.38;101187.78;5041035;28;45244;-67
2023/04/28 09:05:07;;;;;;;;;0.00;0.00;;;;;21.24;60.57;101181.66;5046944;28;46933;-67
2023/04/28 09:07:33;;;;;;;;;0.00;0.00;;;;;21.24;60.39;101188.88;5040506;28;45941;-67
2023/04/28 09:10:20;;;;;;;;;0.00;0.00;;;;;21.23;60.55;101187.19;5043621;28;45291;-67
2023/04/28 09:12:46;;;;;;;;;0.33;0.00;;;;;21.23;60.07;101189.88;5039812;28;45361;-67
2023/04/28 09:15:25;;;;;;;;;1.00;0.00;;;;;21.17;60.32;101180.47;5039793;28;45334;-67
2023/04/28 09:17:51;;;;;;;;;0.33;0.33;;;;;21.21;60.36;101184.59;5039715;28;45871;-67
2023/04/28 09:20:25;;;;;;;;;0.00;0.00;;;;;21.17;60.45;101175.09;5041939;28;45283;-67
2023/04/28 09:22:52;;;;;;;;;0.00;0.00;;;;;21.21;60.52;101189.13;5046554;28;45243;-67
2023/04/28 09:25:20;;;;;;;;;0.00;0.00;;;;;21.19;60.45;101191.13;5058635;28;45411;-68
2023/04/28 09:27:45;;;;;;;;;0.00;0.00;;;;;21.20;60.71;101195.53;5044069;28;46208;-67
2023/04/28 09:30:11;;;;;;;;;0.00;0.00;;;;;21.20;60.33;101190.13;5041833;28;45338;-67
2023/04/28 09:32:37;;;;;;;;;0.00;0.00;;;;;21.17;60.43;101191.22;5045670;28;45216;-67
2023/04/28 09:35:03;;;;;;;;;2.33;0.67;;;;;21.15;60.63;101189.66;5042813;28;45290;-67
2023/04/28 09:37:30;;;;;;;;;0.67;0.00;;;;;21.17;60.29;101190.41;5053883;28;47138;-67
2023/04/28 09:39:58;;;;;;;;;1.33;0.00;;;;;21.17;60.48;101195.78;5042424;28;45420;-68
2023/04/28 09:42:34;;;;;;;;;0.67;0.67;;;;;21.16;60.48;101197.63;5039874;28;45336;-67
2023/04/28 09:45:01;;;;;;;;;0.00;0.00;;;;;21.13;60.37;101186.25;5048552;28;45395;-67
2023/04/28 09:47:28;;;;;;;;;0.00;0.00;;;;;21.13;60.91;101187.13;5053752;28;47039;-67
2023/04/28 09:49:58;;;;;;;;;0.00;0.00;;;;;21.16;61.02;101194.91;5046231;28;45372;-68
2023/04/28 09:52:24;;;;;;;;;0.00;0.00;;;;;21.17;60.77;101190.41;5049755;28;45415;-68
2023/04/28 09:54:52;;;;;;;;;0.00;0.00;;;;;21.16;60.79;101194.06;5042705;28;45307;-68
2023/04/28 09:57:18;;;;;;;;;0.00;0.00;;;;;21.14;61.06;101191.50;5042437;28;45189;-68
2023/04/28 09:59:51;;;;;;;;;0.00;0.00;;;;;21.13;60.47;101195.19;5041939;28;45483;-68
2023/04/28 10:02:19;;;;;;;;;0.00;0.00;;;;;21.12;60.72;101193.47;5042564;28;45275;-68
2023/04/28 10:04:47;;;;;;;;;0.00;0.00;;;;;21.13;60.90;101205.09;5041912;28;45284;-68
2023/04/28 10:07:13;;;;;;;;;0.00;0.00;;;;;21.10;60.40;101200.81;5050686;28;45411;-68
2023/04/28 10:09:42;;;;;;;;;0.00;0.00;;;;;21.09;60.96;101199.09;5061931;28;45329;-67
2023/04/28 10:12:09;;;;;;;;;0.33;0.00;;;;;21.08;61.09;101193.81;5051789;28;45389;-67
2023/04/28 10:14:35;;;;;;;;;1.00;1.00;;;;;20.95;60.97;101183.25;5041482;28;45412;-67
2023/04/28 10:17:02;;;;;;;;;0.00;0.00;;;;;21.10;60.88;101202.66;5045087;28;45457;-67
2023/04/28 10:19:28;;;;;;;;;1.33;0.00;;;;;20.98;61.58;101193.75;5041088;28;45469;-68
2023/04/28 10:22:25;;;;;;;;;0.33;0.33;;;;;21.06;61.61;101202.03;5045334;28;45323;-68
2023/04/28 10:25:28;;;;;;;;;0.00;0.00;;;;;21.06;61.69;101207.41;5052569;28;45465;-68
2023/04/28 10:27:57;;;;;;;;;0.00;0.00;;;;;21.08;61.54;101209.94;5044455;28;46193;-68
2023/04/28 10:30:24;;;;;;;;;0.00;0.00;;;;;21.08;61.62;101207.25;5042191;28;45234;-68
2023/04/28 10:33:05;;;;;;;;;0.00;0.00;;;;;21.06;61.43;101210.09;5042113;28;45252;-68
2023/04/28 10:35:30;;;;;;;;;0.00;0.00;;;;;21.08;61.37;101207.25;5054735;28;45501;-68
2023/04/28 10:38:07;;;;;;;;;1.00;0.33;;;;;21.07;61.61;101211.78;5050105;28;45367;-68
2023/04/28 10:40:43;;;;;;;;;0.00;0.00;;;;;21.08;62.03;101210.81;5055214;28;45262;-67
2023/04/28 10:43:13;;;;;;;;;0.67;0.67;;;;;21.07;61.81;101211.78;5045539;28;45439;-68
2023/04/28 10:45:48;;;;;;;;;0.33;0.33;;;;;21.08;61.50;101216.19;5054186;28;45322;-68
2023/04/28 10:48:17;;;;;;;;;0.67;0.00;;;;;20.96;61.50;101190.34;5040898;28;46105;-68
2023/04/28 10:51:04;;;;;;;;;3.33;0.67;;;;;21.10;61.61;101214.28;5040908;28;45377;-67
2023/04/28 10:53:45;;;;;;;;;0.33;0.33;;;;;21.13;61.00;101210.47;5041545;28;45494;-67
2023/04/28 10:56:20;;;;;;;;;0.33;0.33;;;;;21.14;61.59;101215.69;5050695;28;46117;-68
2023/04/28 10:58:47;;;;;;;;;0.00;0.00;;;;;21.15;61.28;101212.03;5041341;28;45456;-68
2023/04/28 11:01:35;;;;;;;;;1.00;1.00;;;;;21.14;61.52;101207.63;5042004;28;45300;-67
2023/04/28 11:04:12;;;;;;;;;0.67;0.00;;;;;21.15;61.50;101206.66;5050931;28;45410;-67
2023/04/28 11:06:40;;;;;;;;;2.33;0.67;;;;;21.14;61.58;101202.25;5053303;28;47002;-67
2023/04/28 11:09:11;;;;;;;;;0.00;0.00;;;;;21.13;61.47;101203.25;5048404;28;48140;-68
2023/04/28 11:11:38;;;;;;;;;1.00;0.00;;;;;21.14;61.69;101209.47;5050677;28;45990;-67
2023/04/28 11:14:15;;;;;;;;;0.67;0.67;;;;;21.12;61.35;101217.69;5048853;28;45454;-67
2023/04/28 11:16:58;;;;;;;;;2.00;0.67;;;;;21.12;61.17;101206.91;5048790;28;45351;-68
2023/04/28 11:19:26;;;;;;;;;2.00;0.33;;;;;21.15;61.78;101195.03;5048148;28;47094;-68
2023/04/28 11:21:54;;;;;;;;;0.67;0.67;;;;;21.15;61.56;101195.91;5054441;28;45409;-68
